createdAt,value
2019-02-24T00:01:47.273Z,94.00
2019-02-24T00:04:16.178Z,93.90
2019-02-24T00:06:44.655Z,92.60
2019-02-24T00:09:13.771Z,93.60
2019-02-24T00:11:42.325Z,91.90
2019-02-24T00:14:10.940Z,91.50
2019-02-24T00:16:39.568Z,91.60
2019-02-24T00:19:47.920Z,91.80
2019-02-24T00:22:16.484Z,91.40
2019-02-24T00:24:45.168Z,90.80
2019-02-24T00:27:13.728Z,90.80
2019-02-24T00:29:42.314Z,90.40
2019-02-24T00:32:10.866Z,90.40
2019-02-24T00:34:39.446Z,90.40
2019-02-24T00:37:08.187Z,89.30
2019-02-24T00:39:36.744Z,90.00
2019-02-24T00:42:05.299Z,89.10
2019-02-24T00:44:34.043Z,89.70
2019-02-24T00:47:02.524Z,89.30
2019-02-24T00:49:31.464Z,89.10
2019-02-24T00:52:00.187Z,89.90
2019-02-24T00:54:28.938Z,89.70
2019-02-24T00:56:57.565Z,89.10
2019-02-24T00:59:26.141Z,89.60
2019-02-24T01:01:54.710Z,89.90
2019-02-24T01:04:23.292Z,90.10
2019-02-24T01:06:51.839Z,90.50
2019-02-24T01:09:20.423Z,90.00
2019-02-24T01:11:48.979Z,90.00
2019-02-24T01:14:18.105Z,89.40
2019-02-24T01:16:47.147Z,88.90
2019-02-24T01:19:15.652Z,89.40
2019-02-24T01:21:44.217Z,88.80
2019-02-24T01:24:12.799Z,89.00
2019-02-24T01:26:41.390Z,88.90
2019-02-24T01:29:10.038Z,89.10
2019-02-24T01:31:38.595Z,88.80
2019-02-24T01:34:07.267Z,89.60
2019-02-24T01:36:35.957Z,89.30
2019-02-24T01:39:05.824Z,88.60
2019-02-24T01:41:34.381Z,88.90
2019-02-24T01:44:03.148Z,89.30
2019-02-24T01:46:31.701Z,89.90
2019-02-24T01:49:00.282Z,90.10
2019-02-24T01:51:28.859Z,90.00
2019-02-24T01:53:57.647Z,89.90
2019-02-24T01:56:26.244Z,90.00
2019-02-24T01:58:55.171Z,89.70
2019-02-24T02:01:23.936Z,90.20
2019-02-24T02:03:52.524Z,90.40
2019-02-24T02:06:21.081Z,90.50
2019-02-24T02:08:49.636Z,90.20
2019-02-24T02:11:18.671Z,90.30
2019-02-24T02:13:47.400Z,90.50
2019-02-24T02:16:16.178Z,90.70
2019-02-24T02:18:44.727Z,90.80
2019-02-24T02:21:13.243Z,90.80
2019-02-24T02:23:41.811Z,91.30
2019-02-24T02:26:10.377Z,91.10
2019-02-24T02:28:44.052Z,90.90
2019-02-24T02:31:09.164Z,91.20
2019-02-24T02:33:37.724Z,91.50
2019-02-24T02:36:06.299Z,91.70
2019-02-24T02:38:34.935Z,91.40
2019-02-24T02:41:03.605Z,91.70
2019-02-24T02:43:32.164Z,91.60
2019-02-24T02:46:00.840Z,92.20
2019-02-24T02:48:29.872Z,92.50
2019-02-24T02:50:59.309Z,92.40
2019-02-24T02:53:27.856Z,92.80
2019-02-24T02:55:56.548Z,92.70
2019-02-24T02:58:25.189Z,92.70
2019-02-24T03:00:53.926Z,92.80
2019-02-24T03:03:22.476Z,93.70
2019-02-24T03:05:55.732Z,92.90
2019-02-24T03:08:25.928Z,93.20
2019-02-24T03:10:54.941Z,92.50
2019-02-24T03:13:23.500Z,92.60
2019-02-24T03:15:52.076Z,93.50
2019-02-24T03:18:20.878Z,93.10
2019-02-24T03:20:49.744Z,94.00
2019-02-24T03:23:18.317Z,94.00
2019-02-24T03:25:46.910Z,94.30
2019-02-24T03:28:15.536Z,94.10
2019-02-24T03:30:44.060Z,94.20
2019-02-24T03:33:12.616Z,93.70
2019-02-24T03:35:41.223Z,94.40
2019-02-24T03:38:09.847Z,94.70
2019-02-24T03:40:38.428Z,94.10
2019-02-24T03:43:07.205Z,94.70
2019-02-24T03:45:35.787Z,94.70
2019-02-24T03:48:04.462Z,94.90
2019-02-24T03:50:33.009Z,94.90
2019-02-24T03:53:01.647Z,95.10
2019-02-24T03:55:30.332Z,95.00
2019-02-24T03:57:58.982Z,95.00
2019-02-24T04:00:27.635Z,94.70
2019-02-24T04:02:56.339Z,94.50
2019-02-24T04:05:24.959Z,94.40
2019-02-24T04:07:53.554Z,94.50
2019-02-24T04:10:22.108Z,94.60
2019-02-24T04:12:50.759Z,94.70
2019-02-24T04:15:19.379Z,94.40
2019-02-24T04:17:47.967Z,94.30
2019-02-24T04:20:16.548Z,94.10
2019-02-24T04:22:45.119Z,93.90
2019-02-24T04:25:13.757Z,93.90
2019-02-24T04:27:42.333Z,93.80
2019-02-24T04:30:11.181Z,93.70
2019-02-24T04:32:39.751Z,93.70
2019-02-24T04:35:08.440Z,93.70
2019-02-24T04:37:37.027Z,93.30
2019-02-24T04:40:07.770Z,93.30
2019-02-24T04:42:36.352Z,93.00
2019-02-24T04:45:06.059Z,92.80
2019-02-24T04:47:34.630Z,92.50
2019-02-24T04:50:03.751Z,92.40
2019-02-24T04:52:32.344Z,92.30
2019-02-24T04:55:00.904Z,92.40
2019-02-24T04:57:29.500Z,92.80
2019-02-24T04:59:58.051Z,92.70
2019-02-24T05:02:26.628Z,92.80
2019-02-24T05:04:55.192Z,93.20
2019-02-24T05:07:23.927Z,93.20
2019-02-24T05:09:52.487Z,93.10
2019-02-24T05:12:21.148Z,93.30
2019-02-24T05:14:49.732Z,93.20
2019-02-24T05:17:18.348Z,93.40
2019-02-24T05:19:46.871Z,93.20
2019-02-24T05:22:15.529Z,93.00
2019-02-24T05:24:44.089Z,92.50
2019-02-24T05:27:12.669Z,92.40
2019-02-24T05:29:45.962Z,92.20
2019-02-24T05:32:11.475Z,92.20
2019-02-24T05:34:40.035Z,92.30
2019-02-24T05:37:08.613Z,92.00
2019-02-24T05:39:37.194Z,91.90
2019-02-24T05:42:05.675Z,91.70
2019-02-24T05:44:34.258Z,91.90
2019-02-24T05:47:02.819Z,91.90
2019-02-24T05:49:31.648Z,91.80
2019-02-24T05:52:00.224Z,92.00
2019-02-24T05:54:28.842Z,92.20
2019-02-24T05:56:57.509Z,92.00
2019-02-24T05:59:26.076Z,92.20
2019-02-24T06:01:54.639Z,92.10
2019-02-24T06:04:23.228Z,92.20
2019-02-24T06:06:51.793Z,91.70
2019-02-24T06:09:20.381Z,91.60
2019-02-24T06:11:48.944Z,91.40
2019-02-24T06:14:17.526Z,91.00
2019-02-24T06:16:46.097Z,90.80
2019-02-24T06:19:14.683Z,90.70
2019-02-24T06:21:43.247Z,90.20
2019-02-24T06:24:11.832Z,89.40
2019-02-24T06:26:40.383Z,88.90
2019-02-24T06:29:08.986Z,89.10
2019-02-24T06:31:37.537Z,88.30
2019-02-24T06:34:06.127Z,87.40
2019-02-24T06:36:34.675Z,93.70
2019-02-24T06:39:04.127Z,92.70
2019-02-24T06:41:32.691Z,86.10
2019-02-24T06:44:01.276Z,82.20
2019-02-24T06:46:29.831Z,77.20
2019-02-24T06:48:58.411Z,74.20
2019-02-24T06:51:26.964Z,70.40
2019-02-24T06:53:55.542Z,66.20
2019-02-24T06:56:24.039Z,64.10
2019-02-24T06:58:52.615Z,61.20
2019-02-24T07:01:21.245Z,58.30
2019-02-24T07:03:49.811Z,56.80
2019-02-24T07:06:18.363Z,55.00
2019-02-24T07:08:46.939Z,53.50
2019-02-24T07:11:15.498Z,51.80
2019-02-24T07:13:44.077Z,49.70
2019-02-24T07:16:12.631Z,49.00
2019-02-24T07:18:41.200Z,47.70
2019-02-24T07:21:09.774Z,47.60
2019-02-24T07:23:38.319Z,47.30
2019-02-24T07:26:06.896Z,47.40
2019-02-24T07:28:35.456Z,46.60
2019-02-24T07:31:04.037Z,45.70
2019-02-24T07:33:32.613Z,44.40
2019-02-24T07:36:01.159Z,43.60
2019-02-24T07:38:29.716Z,42.20
2019-02-24T07:40:58.283Z,41.30
2019-02-24T07:43:26.832Z,42.20
2019-02-24T07:45:55.411Z,41.30
2019-02-24T07:48:23.956Z,40.40
2019-02-24T07:50:52.536Z,39.30
2019-02-24T07:53:21.097Z,38.30
2019-02-24T07:55:49.665Z,42.40
2019-02-24T07:58:18.219Z,37.70
2019-02-24T08:00:46.800Z,36.90
2019-02-24T08:03:15.341Z,36.60
2019-02-24T08:05:43.920Z,35.00
2019-02-24T08:08:16.407Z,35.60
2019-02-24T08:10:42.776Z,35.70
2019-02-24T08:13:11.335Z,35.10
2019-02-24T08:15:39.916Z,34.00
2019-02-24T08:18:08.474Z,33.40
2019-02-24T08:20:37.043Z,34.30
2019-02-24T08:23:05.672Z,36.80
2019-02-24T08:25:34.245Z,40.00
2019-02-24T08:28:02.806Z,40.70
2019-02-24T08:30:31.383Z,43.20
2019-02-24T08:32:59.936Z,41.50
2019-02-24T08:35:28.525Z,39.50
2019-02-24T08:37:57.076Z,39.00
2019-02-24T08:40:25.648Z,38.30
2019-02-24T08:42:54.207Z,39.30
2019-02-24T08:45:22.781Z,40.10
2019-02-24T08:47:51.331Z,40.10
2019-02-24T08:50:20.064Z,42.40
2019-02-24T08:52:48.611Z,41.90
2019-02-24T08:55:17.159Z,43.40
2019-02-24T08:57:45.740Z,42.00
2019-02-24T09:00:15.652Z,41.20
2019-02-24T09:02:44.228Z,40.70
2019-02-24T09:05:12.776Z,36.80
2019-02-24T09:07:41.347Z,37.10
2019-02-24T09:10:09.972Z,37.50
2019-02-24T09:12:38.543Z,37.90
2019-02-24T09:15:11.969Z,35.50
2019-02-24T09:17:40.545Z,33.10
2019-02-24T09:20:11.147Z,35.70
2019-02-24T09:22:39.799Z,37.00
2019-02-24T09:25:08.821Z,33.90
2019-02-24T09:27:37.464Z,35.20
2019-02-24T09:30:11.555Z,34.20
2019-02-24T09:32:40.131Z,34.20
2019-02-24T09:35:09.622Z,33.30
2019-02-24T09:37:38.267Z,32.70
2019-02-24T09:40:12.110Z,36.20
2019-02-24T09:42:40.687Z,34.60
2019-02-24T09:45:11.843Z,38.70
2019-02-24T09:47:46.881Z,38.80
2019-02-24T09:50:10.980Z,38.70
2019-02-24T09:52:39.553Z,38.00
2019-02-24T09:55:09.656Z,39.60
2019-02-24T09:57:38.216Z,39.70
2019-02-24T10:00:12.262Z,39.00
2019-02-24T10:02:40.834Z,39.50
2019-02-24T10:05:10.016Z,42.20
2019-02-24T10:07:38.605Z,41.50
2019-02-24T10:10:09.895Z,40.60
2019-02-24T10:12:38.467Z,41.70
2019-02-24T10:15:10.266Z,43.00
2019-02-24T10:17:38.837Z,42.30
2019-02-24T10:20:09.827Z,42.80
2019-02-24T10:22:38.399Z,43.30
2019-02-24T10:25:08.697Z,44.10
2019-02-24T10:27:37.343Z,44.10
2019-02-24T10:30:13.271Z,44.40
2019-02-24T10:32:41.866Z,45.30
2019-02-24T10:35:10.479Z,45.80
2019-02-24T10:37:39.030Z,45.90
2019-02-24T10:40:17.445Z,46.40
2019-02-24T10:42:46.283Z,46.20
2019-02-24T10:45:16.624Z,46.90
2019-02-24T10:47:45.185Z,46.80
2019-02-24T10:50:15.338Z,45.50
2019-02-24T10:52:43.905Z,46.00
2019-02-24T10:55:12.625Z,47.20
2019-02-24T10:57:41.171Z,47.00
2019-02-24T11:00:12.819Z,47.00
2019-02-24T11:02:41.442Z,46.20
2019-02-24T11:05:10.076Z,46.50
2019-02-24T11:07:38.627Z,46.60
2019-02-24T11:10:08.971Z,45.60
2019-02-24T11:12:37.591Z,46.60
2019-02-24T11:15:08.211Z,46.60
2019-02-24T11:17:36.895Z,47.40
2019-02-24T11:20:18.760Z,46.40
2019-02-24T11:22:47.311Z,46.80
2019-02-24T11:25:16.082Z,46.90
2019-02-24T11:27:44.631Z,46.60
2019-02-24T11:30:14.802Z,46.40
2019-02-24T11:32:43.576Z,46.60
2019-02-24T11:35:13.109Z,45.00
2019-02-24T11:37:41.808Z,44.10
2019-02-24T11:40:17.961Z,44.10
2019-02-24T11:42:46.563Z,41.40
2019-02-24T11:45:15.199Z,40.90
2019-02-24T11:47:43.749Z,41.90
2019-02-24T11:50:13.097Z,42.90
2019-02-24T11:52:41.680Z,41.80
2019-02-24T11:55:10.849Z,39.60
2019-02-24T11:57:39.659Z,37.20
2019-02-24T12:00:11.109Z,39.10
2019-02-24T12:02:41.621Z,39.50
2019-02-24T12:05:10.562Z,38.50
2019-02-24T12:07:39.287Z,37.30
2019-02-24T12:10:10.099Z,38.20
2019-02-24T12:12:38.820Z,39.90
2019-02-24T12:15:10.425Z,38.70
2019-02-24T12:17:38.978Z,40.20
2019-02-24T12:20:11.848Z,41.70
2019-02-24T12:22:40.475Z,37.60
2019-02-24T12:25:10.383Z,38.00
2019-02-24T12:27:38.951Z,37.90
2019-02-24T12:30:10.600Z,38.00
2019-02-24T12:32:39.143Z,38.20
2019-02-24T12:35:07.783Z,38.90
2019-02-24T12:37:36.340Z,38.70
2019-02-24T12:40:09.962Z,38.40
2019-02-24T12:42:38.593Z,37.70
2019-02-24T12:45:11.165Z,37.30
2019-02-24T12:47:39.800Z,38.60
2019-02-24T12:50:12.743Z,37.90
2019-02-24T12:52:41.365Z,38.20
2019-02-24T12:55:10.366Z,37.60
2019-02-24T12:57:58.252Z,37.90
2019-02-24T13:00:47.689Z,37.60
2019-02-24T13:03:23.798Z,37.30
2019-02-24T13:05:46.589Z,38.00
2019-02-24T13:08:15.148Z,38.20
2019-02-24T13:10:43.792Z,37.90
2019-02-24T13:13:12.345Z,37.20
2019-02-24T13:15:41.136Z,36.60
2019-02-24T13:18:09.761Z,36.70
2019-02-24T13:20:38.348Z,36.30
2019-02-24T13:23:06.963Z,36.60
2019-02-24T13:25:35.536Z,37.70
2019-02-24T13:28:04.152Z,37.00
2019-02-24T13:30:32.736Z,36.60
2019-02-24T13:33:01.280Z,37.40
2019-02-24T13:35:29.923Z,37.40
2019-02-24T13:37:58.470Z,37.10
2019-02-24T13:40:27.043Z,37.10
2019-02-24T13:42:55.596Z,38.50
2019-02-24T13:45:24.174Z,38.20
2019-02-24T13:47:52.727Z,38.30
2019-02-24T13:50:21.439Z,38.70
2019-02-24T13:52:50.057Z,39.00
2019-02-24T13:55:18.708Z,38.80
2019-02-24T13:57:47.259Z,38.20
2019-02-24T14:00:18.327Z,38.30
2019-02-24T14:02:46.884Z,38.50
2019-02-24T14:05:15.431Z,37.60
2019-02-24T14:07:43.995Z,37.10
2019-02-24T14:10:13.793Z,36.90
2019-02-24T14:12:42.434Z,37.20
2019-02-24T14:15:15.192Z,37.90
2019-02-24T14:17:43.823Z,37.80
2019-02-24T14:20:14.121Z,38.40
2019-02-24T14:22:42.699Z,37.80
2019-02-24T14:25:12.187Z,37.20
2019-02-24T14:27:40.903Z,37.20
2019-02-24T14:30:19.072Z,37.20
2019-02-24T14:32:47.655Z,37.80
2019-02-24T14:35:18.505Z,38.20
2019-02-24T14:37:47.076Z,38.60
2019-02-24T14:40:15.701Z,38.90
2019-02-24T14:42:44.281Z,38.20
2019-02-24T14:45:18.097Z,39.10
2019-02-24T14:47:46.657Z,38.10
2019-02-24T14:50:15.350Z,37.40
2019-02-24T14:52:43.963Z,37.10
2019-02-24T14:55:13.651Z,37.60
2019-02-24T14:57:42.223Z,36.90
2019-02-24T15:00:15.912Z,36.50
2019-02-24T15:02:44.486Z,37.00
2019-02-24T15:05:16.860Z,36.90
2019-02-24T15:07:45.647Z,37.00
2019-02-24T15:10:18.808Z,38.30
2019-02-24T15:12:47.379Z,38.50
2019-02-24T15:15:21.523Z,38.10
2019-02-24T15:17:50.102Z,38.10
2019-02-24T15:20:20.085Z,38.40
2019-02-24T15:22:48.660Z,38.90
2019-02-24T15:25:20.251Z,37.40
2019-02-24T15:27:48.824Z,38.40
2019-02-24T15:30:37.900Z,38.10
2019-02-24T15:33:06.608Z,38.10
2019-02-24T15:35:35.160Z,38.80
2019-02-24T15:38:03.803Z,38.10
2019-02-24T15:40:32.353Z,38.50
2019-02-24T15:43:00.931Z,38.60
2019-02-24T15:45:29.553Z,38.70
2019-02-24T15:47:58.124Z,38.70
2019-02-24T15:50:26.672Z,39.50
2019-02-24T15:52:55.254Z,39.70
2019-02-24T15:55:23.808Z,39.60
2019-02-24T15:57:52.380Z,39.40
2019-02-24T16:00:24.640Z,40.00
2019-02-24T16:03:01.167Z,39.70
2019-02-24T16:05:23.483Z,39.40
2019-02-24T16:07:52.042Z,39.70
2019-02-24T16:10:23.812Z,40.10
2019-02-24T16:13:17.063Z,40.10
2019-02-24T16:15:41.919Z,39.80
2019-02-24T16:18:10.487Z,40.40
2019-02-24T16:20:39.475Z,41.20
2019-02-24T16:23:08.117Z,41.00
2019-02-24T16:25:36.663Z,41.30
2019-02-24T16:28:05.241Z,40.70
2019-02-24T16:30:33.837Z,41.70
2019-02-24T16:33:10.189Z,41.70
2019-02-24T16:35:32.575Z,40.90
2019-02-24T16:38:01.140Z,42.20
2019-02-24T16:40:29.767Z,42.30
2019-02-24T16:42:58.332Z,42.80
2019-02-24T16:45:26.953Z,43.60
2019-02-24T16:47:55.531Z,44.20
2019-02-24T16:50:24.821Z,44.90
2019-02-24T16:52:53.468Z,45.70
2019-02-24T16:55:22.016Z,46.40
2019-02-24T16:57:50.671Z,47.00
2019-02-24T17:00:22.517Z,47.60
2019-02-24T17:02:51.159Z,47.50
2019-02-24T17:05:19.846Z,47.60
2019-02-24T17:07:49.285Z,48.60
2019-02-24T17:10:23.191Z,48.80
2019-02-24T17:12:51.835Z,49.50
2019-02-24T17:15:20.444Z,49.90
2019-02-24T17:17:49.071Z,50.40
2019-02-24T17:20:26.530Z,50.90
2019-02-24T17:23:14.371Z,51.70
2019-02-24T17:25:42.927Z,52.20
2019-02-24T17:28:11.496Z,52.10
2019-02-24T17:30:40.049Z,53.90
2019-02-24T17:33:08.641Z,57.70
2019-02-24T17:35:37.559Z,59.20
2019-02-24T17:38:06.182Z,61.20
2019-02-24T17:40:34.774Z,60.80
2019-02-24T17:43:03.330Z,59.40
2019-02-24T17:45:31.914Z,60.60
2019-02-24T17:48:00.599Z,60.60
2019-02-24T17:50:29.195Z,62.30
2019-02-24T17:52:57.787Z,62.60
2019-02-24T17:55:26.321Z,62.50
2019-02-24T17:57:54.875Z,74.40
2019-02-24T18:00:28.938Z,66.00
2019-02-24T18:02:57.756Z,64.60
2019-02-24T18:05:26.339Z,63.50
2019-02-24T18:07:54.888Z,64.60
2019-02-24T18:10:23.533Z,65.20
2019-02-24T18:12:52.142Z,66.40
2019-02-24T18:15:20.720Z,65.10
2019-02-24T18:17:49.634Z,65.40
2019-02-24T18:20:22.192Z,66.60
2019-02-24T18:22:50.810Z,66.40
2019-02-24T18:25:19.400Z,66.10
2019-02-24T18:27:47.994Z,66.60
2019-02-24T18:30:27.865Z,66.20
2019-02-24T18:32:56.449Z,67.20
2019-02-24T18:35:25.031Z,67.20
2019-02-24T18:37:53.600Z,68.30
2019-02-24T18:40:22.174Z,69.70
2019-02-24T18:42:59.317Z,70.00
2019-02-24T18:45:21.021Z,70.20
2019-02-24T18:47:49.916Z,71.20
2019-02-24T18:50:20.187Z,71.70
2019-02-24T18:52:48.884Z,72.40
2019-02-24T18:55:17.538Z,72.50
2019-02-24T18:57:46.100Z,73.70
2019-02-24T19:00:20.935Z,73.80
2019-02-24T19:02:49.488Z,73.20
2019-02-24T19:05:18.152Z,74.00
2019-02-24T19:07:46.767Z,75.00
2019-02-24T19:10:18.420Z,74.60
2019-02-24T19:12:47.248Z,75.40
2019-02-24T19:15:17.484Z,75.30
2019-02-24T19:17:48.217Z,75.80
2019-02-24T19:20:19.520Z,77.00
2019-02-24T19:22:48.258Z,78.00
2019-02-24T19:25:17.075Z,77.30
2019-02-24T19:27:45.631Z,78.80
2019-02-24T19:30:18.028Z,80.20
2019-02-24T19:32:46.594Z,79.70
2019-02-24T19:35:16.408Z,79.10
2019-02-24T19:37:45.099Z,78.90
2019-02-24T19:40:21.087Z,79.30
2019-02-24T19:42:49.882Z,80.50
2019-02-24T19:45:24.005Z,80.60
2019-02-24T19:47:52.769Z,80.90
2019-02-24T19:50:21.514Z,81.10
2019-02-24T19:52:50.060Z,81.20
2019-02-24T19:55:18.875Z,82.90
2019-02-24T19:57:47.531Z,82.80
2019-02-24T20:00:21.294Z,83.20
2019-02-24T20:02:49.923Z,83.80
2019-02-24T20:05:19.323Z,84.60
2019-02-24T20:07:48.273Z,84.70
2019-02-24T20:10:27.617Z,85.30
2019-02-24T20:12:56.175Z,86.10
2019-02-24T20:15:24.766Z,86.20
2019-02-24T20:17:53.322Z,85.70
2019-02-24T20:20:22.172Z,85.60
2019-02-24T20:22:50.752Z,85.80
2019-02-24T20:25:23.403Z,86.00
2019-02-24T20:27:51.951Z,86.00
2019-02-24T20:30:28.172Z,86.00
2019-02-24T20:32:56.800Z,85.90
2019-02-24T20:35:25.466Z,86.70
2019-02-24T20:37:55.834Z,86.50
2019-02-24T20:40:24.476Z,86.90
2019-02-24T20:42:53.052Z,87.50
2019-02-24T20:45:22.754Z,87.40
2019-02-24T20:47:51.394Z,85.10
2019-02-24T20:50:24.853Z,86.40
2019-02-24T20:52:53.636Z,86.00
2019-02-24T20:55:22.252Z,89.10
2019-02-24T20:57:50.910Z,88.30
2019-02-24T21:00:22.479Z,89.00
2019-02-24T21:02:51.068Z,88.40
2019-02-24T21:05:19.828Z,88.90
2019-02-24T21:07:48.411Z,88.70
2019-02-24T21:10:17.107Z,89.90
2019-02-24T21:12:45.776Z,89.40
2019-02-24T21:15:15.863Z,90.10
2019-02-24T21:17:44.616Z,90.50
2019-02-24T21:20:15.980Z,89.60
2019-02-24T21:22:44.650Z,89.50
2019-02-24T21:25:13.258Z,89.60
2019-02-24T21:27:41.772Z,90.60
2019-02-24T21:30:13.531Z,90.90
2019-02-24T21:32:42.233Z,91.00
2019-02-24T21:35:11.493Z,90.80
2019-02-24T21:37:40.077Z,90.90
2019-02-24T21:40:13.849Z,92.00
2019-02-24T21:42:42.441Z,92.30
2019-02-24T21:45:16.584Z,92.60
2019-02-24T21:47:45.159Z,92.90
2019-02-24T21:50:15.730Z,93.20
2019-02-24T21:52:44.311Z,93.60
2019-02-24T21:55:13.410Z,93.20
2019-02-24T21:57:41.986Z,93.30
2019-02-24T22:00:18.947Z,93.50
2019-02-24T22:02:47.600Z,93.30
2019-02-24T22:05:16.252Z,93.20
2019-02-24T22:07:45.073Z,93.00
2019-02-24T22:10:14.830Z,93.30
2019-02-24T22:12:43.632Z,93.40
2019-02-24T22:15:15.267Z,93.80
2019-02-24T22:17:44.132Z,93.90
2019-02-24T22:20:14.508Z,93.80
2019-02-24T22:22:43.081Z,93.40
2019-02-24T22:25:13.378Z,93.80
2019-02-24T22:27:42.033Z,93.60
2019-02-24T22:30:13.321Z,94.00
2019-02-24T22:32:41.887Z,93.90
2019-02-24T22:35:10.980Z,93.80
2019-02-24T22:37:39.559Z,93.80
2019-02-24T22:40:12.815Z,93.30
2019-02-24T22:42:41.469Z,94.00
2019-02-24T22:45:18.044Z,94.40
2019-02-24T22:47:46.622Z,94.70
2019-02-24T22:50:16.128Z,93.70
2019-02-24T22:52:45.457Z,94.20
2019-02-24T22:55:18.613Z,94.40
2019-02-24T22:57:47.224Z,94.50
2019-02-24T23:00:31.780Z,94.80
2019-02-24T23:03:00.451Z,95.00
2019-02-24T23:05:29.144Z,94.80
2019-02-24T23:07:57.721Z,94.80
2019-02-24T23:10:26.373Z,94.70
2019-02-24T23:12:55.019Z,94.80
2019-02-24T23:15:23.644Z,94.80
2019-02-24T23:17:52.228Z,95.30
2019-02-24T23:20:20.795Z,94.30
2019-02-24T23:22:49.371Z,93.60
2019-02-24T23:25:17.935Z,93.50
2019-02-24T23:27:46.521Z,94.70
2019-02-24T23:30:15.153Z,94.90
2019-02-24T23:32:43.875Z,95.50
2019-02-24T23:35:12.522Z,95.80
2019-02-24T23:37:41.112Z,95.80
2019-02-24T23:40:09.846Z,94.60
2019-02-24T23:42:38.380Z,94.70
2019-02-24T23:45:13.371Z,95.90
2019-02-24T23:47:41.991Z,96.00
2019-02-24T23:50:12.015Z,96.10
2019-02-24T23:52:40.647Z,96.00
2019-02-24T23:55:10.568Z,96.80
2019-02-24T23:57:39.123Z,97.80
